Time;durP1;ratioP1;P1;durP2;ratioP2;P2;SDS_P1;SDS_P2;PMS_P1;PMS_P2;Temp;Humidity;BMP_temperature;BMP_pressure;BME280_temperature;BME280_humidity;BME280_pressure;Samples;Min_cycle;Max_cycle;Signal;HPM_P1;HPM_P2
2021/10/29 00:01:48;;;;;;;12.87;11.57;;;;;;;;;;6211725;23;20652;-76
2021/10/29 00:04:13;;;;;;;12.13;10.87;;;;;;;;;;6211358;23;20641;-76
2021/10/29 00:06:38;;;;;;;13.50;11.40;;;;;;;;;;6211021;23;20174;-76
2021/10/29 00:09:04;;;;;;;14.43;11.80;;;;;;;;;;6208600;23;20529;-76
2021/10/29 00:11:29;;;;;;;15.27;12.90;;;;;;;;;;6210657;23;20147;-75
2021/10/29 00:13:54;;;;;;;19.20;11.83;;;;;;;;;;6182123;23;20182;-75
2021/10/29 00:16:20;;;;;;;14.67;11.30;;;;;;;;;;6205821;23;20140;-76
2021/10/29 00:18:45;;;;;;;15.37;11.60;;;;;;;;;;6211634;23;20185;-76
2021/10/29 00:21:10;;;;;;;14.00;11.60;;;;;;;;;;6212027;23;20148;-75
2021/10/29 00:23:36;;;;;;;13.73;11.47;;;;;;;;;;6211138;23;20148;-76
2021/10/29 00:26:01;;;;;;;13.80;11.23;;;;;;;;;;6211823;23;20626;-76
2021/10/29 00:28:27;;;;;;;14.20;11.90;;;;;;;;;;6212290;23;20175;-76
2021/10/29 00:30:53;;;;;;;17.07;13.03;;;;;;;;;;6212184;23;20302;-76
2021/10/29 00:33:18;;;;;;;15.50;11.30;;;;;;;;;;6184276;23;20148;-76
2021/10/29 00:35:44;;;;;;;15.57;12.20;;;;;;;;;;6212090;23;20263;-76
2021/10/29 00:38:10;;;;;;;14.80;13.20;;;;;;;;;;6212160;23;20578;-76
2021/10/29 00:40:38;;;;;;;14.13;12.33;;;;;;;;;;6211318;23;20190;-76
2021/10/29 00:43:03;;;;;;;15.37;12.80;;;;;;;;;;6211612;23;20442;-76
2021/10/29 00:45:29;;;;;;;13.70;12.30;;;;;;;;;;6211403;23;20445;-76
2021/10/29 00:47:54;;;;;;;15.00;13.33;;;;;;;;;;6211961;23;20757;-76
2021/10/29 00:50:19;;;;;;;14.07;12.67;;;;;;;;;;6212365;23;20140;-76
2021/10/29 00:52:45;;;;;;;15.43;12.63;;;;;;;;;;6211427;23;20178;-76
2021/10/29 00:55:10;;;;;;;15.10;13.00;;;;;;;;;;6185304;23;20195;-76
2021/10/29 00:57:37;;;;;;;17.13;14.37;;;;;;;;;;6212232;23;20513;-76
2021/10/29 01:00:03;;;;;;;16.37;13.23;;;;;;;;;;6211146;23;20191;-76
2021/10/29 01:02:29;;;;;;;14.60;12.87;;;;;;;;;;6211417;23;20391;-76
2021/10/29 01:04:55;;;;;;;16.43;14.03;;;;;;;;;;6210257;23;20390;-76
2021/10/29 01:07:20;;;;;;;17.77;13.93;;;;;;;;;;6211816;23;20171;-76
2021/10/29 01:09:46;;;;;;;16.07;14.10;;;;;;;;;;6211907;23;20821;-75
2021/10/29 01:12:11;;;;;;;17.30;15.53;;;;;;;;;;6211484;23;20147;-75
2021/10/29 01:14:36;;;;;;;16.70;13.97;;;;;;;;;;6210301;23;20164;-75
2021/10/29 01:17:02;;;;;;;15.23;13.17;;;;;;;;;;6211174;23;20152;-76
2021/10/29 01:19:30;;;;;;;15.87;14.13;;;;;;;;;;6211260;23;20615;-75
2021/10/29 01:21:55;;;;;;;18.90;14.70;;;;;;;;;;6212031;23;20198;-76
2021/10/29 01:24:21;;;;;;;18.67;14.40;;;;;;;;;;6211519;23;20394;-76
2021/10/29 01:26:46;;;;;;;15.37;12.83;;;;;;;;;;6210776;23;20921;-76
2021/10/29 01:29:12;;;;;;;16.80;13.67;;;;;;;;;;6185527;23;20152;-76
2021/10/29 01:31:37;;;;;;;18.53;14.30;;;;;;;;;;6211935;23;20167;-76
2021/10/29 01:34:02;;;;;;;17.43;14.37;;;;;;;;;;6209478;23;20188;-76
2021/10/29 01:36:27;;;;;;;19.00;15.50;;;;;;;;;;6210649;23;20220;-75
2021/10/29 01:38:52;;;;;;;18.57;14.93;;;;;;;;;;6212116;23;20148;-76
2021/10/29 01:41:18;;;;;;;15.77;14.07;;;;;;;;;;6212018;23;20235;-76
2021/10/29 01:43:44;;;;;;;16.87;14.03;;;;;;;;;;6211329;23;20155;-76
2021/10/29 01:46:10;;;;;;;16.80;14.50;;;;;;;;;;6211300;23;20493;-76
2021/10/29 01:48:49;;;;;;;20.20;14.73;;;;;;;;;;6210755;23;20825;-76
2021/10/29 01:51:15;;;;;;;18.50;15.40;;;;;;;;;;6210444;23;20271;-76
2021/10/29 01:53:41;;;;;;;15.60;13.90;;;;;;;;;;6211168;23;20747;-76
2021/10/29 01:56:06;;;;;;;20.20;14.60;;;;;;;;;;6211846;23;20474;-76
2021/10/29 01:58:32;;;;;;;18.93;14.47;;;;;;;;;;6210526;23;20371;-76
2021/10/29 02:00:57;;;;;;;17.83;14.40;;;;;;;;;;6209482;23;20152;-76
2021/10/29 02:03:23;;;;;;;15.90;13.97;;;;;;;;;;6210021;23;20367;-76
2021/10/29 02:05:48;;;;;;;18.40;14.23;;;;;;;;;;6211600;23;20199;-76
2021/10/29 02:08:13;;;;;;;16.97;15.17;;;;;;;;;;6210677;23;20144;-76
2021/10/29 02:10:39;;;;;;;17.03;14.80;;;;;;;;;;6212156;23;20140;-75
2021/10/29 02:13:04;;;;;;;16.30;13.97;;;;;;;;;;6209949;23;20219;-76
2021/10/29 02:15:29;;;;;;;16.50;14.47;;;;;;;;;;6211051;23;20172;-76
2021/10/29 02:17:55;;;;;;;17.83;15.30;;;;;;;;;;6213096;23;20148;-76
2021/10/29 02:20:20;;;;;;;18.10;15.00;;;;;;;;;;6213506;23;20844;-76
2021/10/29 02:22:46;;;;;;;16.73;13.93;;;;;;;;;;6213284;23;20148;-76
2021/10/29 02:25:12;;;;;;;16.60;14.27;;;;;;;;;;6212511;23;20243;-76
2021/10/29 02:27:37;;;;;;;18.07;15.10;;;;;;;;;;6213581;23;20147;-76
2021/10/29 02:30:03;;;;;;;19.03;14.83;;;;;;;;;;6212139;23;20198;-76
2021/10/29 02:32:28;;;;;;;17.80;14.33;;;;;;;;;;6213138;23;20144;-76
2021/10/29 02:34:53;;;;;;;18.40;14.30;;;;;;;;;;6213128;23;20554;-76
2021/10/29 02:37:19;;;;;;;18.10;15.30;;;;;;;;;;6213100;23;20151;-75
2021/10/29 02:39:44;;;;;;;18.90;14.40;;;;;;;;;;6212938;23;20466;-75
2021/10/29 02:42:10;;;;;;;17.13;14.33;;;;;;;;;;6212256;23;20641;-76
2021/10/29 02:44:35;;;;;;;17.90;13.97;;;;;;;;;;6212677;23;20172;-76
2021/10/29 02:47:00;;;;;;;16.70;14.90;;;;;;;;;;6211766;23;20172;-76
2021/10/29 02:49:25;;;;;;;17.00;13.80;;;;;;;;;;6212407;23;20152;-76
2021/10/29 02:51:51;;;;;;;16.57;13.63;;;;;;;;;;6213513;23;20755;-76
2021/10/29 02:54:16;;;;;;;18.30;14.70;;;;;;;;;;6212320;23;20206;-76
2021/10/29 02:56:41;;;;;;;18.10;14.67;;;;;;;;;;6212513;23;20155;-76
2021/10/29 02:59:06;;;;;;;16.40;13.83;;;;;;;;;;6213133;23;20617;-75
2021/10/29 03:01:32;;;;;;;17.00;13.97;;;;;;;;;;6211980;23;20152;-76
2021/10/29 03:03:57;;;;;;;18.00;13.90;;;;;;;;;;6212818;23;20225;-76
2021/10/29 03:06:22;;;;;;;17.00;14.17;;;;;;;;;;6213208;23;20206;-76
2021/10/29 03:08:47;;;;;;;18.13;14.33;;;;;;;;;;6213228;23;20549;-76
2021/10/29 03:11:13;;;;;;;15.20;12.57;;;;;;;;;;6213183;23;20147;-76
2021/10/29 03:13:38;;;;;;;15.77;13.60;;;;;;;;;;6210726;23;20219;-77
2021/10/29 03:16:03;;;;;;;17.23;13.90;;;;;;;;;;6212281;23;20239;-76
2021/10/29 03:18:29;;;;;;;18.43;14.23;;;;;;;;;;6212259;23;20201;-77
2021/10/29 03:20:54;;;;;;;16.00;14.30;;;;;;;;;;6212850;23;20152;-77
2021/10/29 03:23:20;;;;;;;15.37;13.53;;;;;;;;;;6212941;23;20148;-77
2021/10/29 03:25:45;;;;;;;18.67;14.37;;;;;;;;;;6212862;23;20172;-77
2021/10/29 03:28:11;;;;;;;17.40;14.17;;;;;;;;;;6212230;23;20203;-76
2021/10/29 03:30:37;;;;;;;18.77;13.53;;;;;;;;;;6212912;23;20194;-77
2021/10/29 03:33:02;;;;;;;17.50;13.87;;;;;;;;;;6212736;23;20144;-77
2021/10/29 03:35:27;;;;;;;19.73;12.87;;;;;;;;;;6212817;23;20665;-77
2021/10/29 03:45:25;;;;;;;16.87;13.20;;;;;;;;;;6212167;23;20450;-77
2021/10/29 03:47:54;;;;;;;19.43;13.53;;;;;;;;;;6212620;23;20201;-77
2021/10/29 03:50:27;;;;;;;17.30;13.20;;;;;;;;;;6211652;23;20165;-77
2021/10/29 03:52:59;;;;;;;16.10;12.80;;;;;;;;;;6212328;23;20351;-77
2021/10/29 03:55:34;;;;;;;14.13;12.50;;;;;;;;;;6212818;23;20474;-77
2021/10/29 03:57:59;;;;;;;19.17;14.50;;;;;;;;;;6212745;23;20400;-77
2021/10/29 04:00:28;;;;;;;15.63;12.40;;;;;;;;;;6212492;23;20383;-77
2021/10/29 04:02:54;;;;;;;15.57;12.10;;;;;;;;;;6211487;23;20182;-77
2021/10/29 04:05:20;;;;;;;12.87;11.50;;;;;;;;;;6212522;23;20406;-77
2021/10/29 04:07:45;;;;;;;13.70;10.77;;;;;;;;;;6211217;23;20144;-77
2021/10/29 04:10:11;;;;;;;17.70;13.50;;;;;;;;;;6212214;23;20146;-77
2021/10/29 04:12:37;;;;;;;16.70;12.77;;;;;;;;;;6213267;23;20152;-77
2021/10/29 04:15:03;;;;;;;16.27;11.53;;;;;;;;;;6212030;23;20166;-76
2021/10/29 04:17:29;;;;;;;14.90;12.70;;;;;;;;;;6211889;23;20374;-77
2021/10/29 04:19:54;;;;;;;19.43;12.30;;;;;;;;;;6212677;23;20359;-77
2021/10/29 04:22:19;;;;;;;16.23;11.70;;;;;;;;;;6211986;23;20152;-77
2021/10/29 04:24:44;;;;;;;12.37;11.07;;;;;;;;;;6211918;23;20160;-77
2021/10/29 04:27:19;;;;;;;12.90;11.03;;;;;;;;;;6211956;23;20164;-77
2021/10/29 04:29:44;;;;;;;13.90;11.60;;;;;;;;;;6212761;23;20127;-77
2021/10/29 04:32:10;;;;;;;15.50;12.90;;;;;;;;;;6211567;23;20428;-77
2021/10/29 04:34:35;;;;;;;14.60;11.97;;;;;;;;;;6210280;23;20507;-77
2021/10/29 04:37:00;;;;;;;14.43;12.63;;;;;;;;;;6186095;23;20235;-77
2021/10/29 04:39:26;;;;;;;15.10;11.60;;;;;;;;;;6212378;23;20194;-77
2021/10/29 04:41:51;;;;;;;16.90;12.67;;;;;;;;;;6210970;23;20843;-77
2021/10/29 04:44:18;;;;;;;14.90;11.73;;;;;;;;;;6210323;23;20172;-77
2021/10/29 04:46:44;;;;;;;14.70;11.00;;;;;;;;;;6210930;23;20167;-77
2021/10/29 04:49:09;;;;;;;14.27;11.80;;;;;;;;;;6211827;23;20420;-77
2021/10/29 04:51:34;;;;;;;12.20;10.63;;;;;;;;;;6212005;23;20147;-77
2021/10/29 04:54:00;;;;;;;13.43;11.40;;;;;;;;;;6211483;23;20164;-77
2021/10/29 04:56:25;;;;;;;13.53;11.60;;;;;;;;;;6183002;23;20238;-76
2021/10/29 04:58:50;;;;;;;13.03;11.63;;;;;;;;;;6210909;23;20179;-77
2021/10/29 05:01:16;;;;;;;12.13;10.83;;;;;;;;;;6209179;23;20159;-76
2021/10/29 05:03:41;;;;;;;14.07;10.77;;;;;;;;;;6210470;23;20182;-77
2021/10/29 05:06:07;;;;;;;14.07;11.87;;;;;;;;;;6187024;23;20176;-77
2021/10/29 05:08:32;;;;;;;14.23;11.27;;;;;;;;;;6209666;23;20579;-76
2021/10/29 05:10:57;;;;;;;14.30;11.20;;;;;;;;;;6208970;23;20252;-77
2021/10/29 05:13:23;;;;;;;13.83;10.80;;;;;;;;;;6206155;23;20148;-77
2021/10/29 05:15:48;;;;;;;12.87;11.23;;;;;;;;;;6209020;23;20610;-76
2021/10/29 05:18:16;;;;;;;12.87;10.43;;;;;;;;;;6184374;23;20166;-77
2021/10/29 05:20:42;;;;;;;13.03;10.97;;;;;;;;;;6210250;23;20155;-77
2021/10/29 05:23:07;;;;;;;12.67;10.77;;;;;;;;;;6210076;23;20406;-76
2021/10/29 05:25:33;;;;;;;14.07;11.10;;;;;;;;;;6210818;23;20410;-76
2021/10/29 05:27:58;;;;;;;13.70;10.00;;;;;;;;;;6182469;23;20155;-77
2021/10/29 05:30:23;;;;;;;11.70;10.07;;;;;;;;;;6210568;23;20148;-77
2021/10/29 05:32:48;;;;;;;10.77;9.33;;;;;;;;;;6211064;23;20579;-77
2021/10/29 05:35:14;;;;;;;13.57;9.77;;;;;;;;;;6211217;23;20715;-77
2021/10/29 05:37:39;;;;;;;11.50;9.30;;;;;;;;;;6208160;23;20595;-76
2021/10/29 05:40:05;;;;;;;12.73;10.90;;;;;;;;;;6211609;23;20211;-76
2021/10/29 05:42:30;;;;;;;12.40;9.70;;;;;;;;;;6210922;23;20137;-76
2021/10/29 05:44:56;;;;;;;13.03;9.83;;;;;;;;;;6211396;23;20425;-76
2021/10/29 05:47:21;;;;;;;12.63;10.07;;;;;;;;;;6211180;23;20506;-76
2021/10/29 05:49:47;;;;;;;14.17;9.60;;;;;;;;;;6210721;23;20158;-76
2021/10/29 05:52:19;;;;;;;12.17;9.73;;;;;;;;;;6213288;23;20147;-76
2021/10/29 05:57:22;;;;;;;12.33;9.17;;;;;;;;;;6223665;23;20365;-76
2021/10/29 05:59:47;;;;;;;13.17;10.30;;;;;;;;;;6213702;23;20405;-76
2021/10/29 06:02:13;;;;;;;12.93;10.43;;;;;;;;;;6213432;23;25054;-76
2021/10/29 06:04:38;;;;;;;12.20;9.70;;;;;;;;;;6211953;23;25048;-77
2021/10/29 06:07:04;;;;;;;14.13;10.57;;;;;;;;;;6213240;23;25042;-76
2021/10/29 06:09:29;;;;;;;16.10;10.63;;;;;;;;;;6212509;23;25102;-76
2021/10/29 06:11:54;;;;;;;9.90;8.87;;;;;;;;;;6211653;23;25051;-76
2021/10/29 06:14:20;;;;;;;10.00;8.67;;;;;;;;;;6212910;23;20175;-76
2021/10/29 06:16:45;;;;;;;9.87;8.87;;;;;;;;;;6210962;23;25081;-76
2021/10/29 06:19:11;;;;;;;11.80;9.23;;;;;;;;;;6212890;23;25057;-76
2021/10/29 06:21:43;;;;;;;11.80;9.87;;;;;;;;;;6211892;23;25041;-76
2021/10/29 06:24:12;;;;;;;12.27;9.03;;;;;;;;;;6211535;23;25076;-76
2021/10/29 06:29:29;;;;;;;10.97;9.73;;;;;;;;;;6178135;23;25113;-76
2021/10/29 06:31:54;;;;;;;10.43;8.83;;;;;;;;;;6213174;23;20380;-76
2021/10/29 06:34:20;;;;;;;11.13;9.10;;;;;;;;;;6211891;23;25043;-77
2021/10/29 06:36:46;;;;;;;12.03;9.17;;;;;;;;;;6207873;23;25044;-76
2021/10/29 06:39:11;;;;;;;11.43;9.40;;;;;;;;;;6211976;23;25073;-77
2021/10/29 06:41:37;;;;;;;9.73;8.30;;;;;;;;;;6212623;23;25040;-76
2021/10/29 06:44:24;;;;;;;9.77;8.70;;;;;;;;;;6211089;23;25077;-76
2021/10/29 06:47:32;;;;;;;9.43;8.53;;;;;;;;;;6211861;23;20198;-76
2021/10/29 07:00:36;;;;;;;9.27;7.83;;;;;;;;;;6212797;23;25069;-77
2021/10/29 07:41:17;;;;;;;9.43;8.00;;;;;;;;;;6211520;23;25148;-77
2021/10/29 07:46:09;;;;;;;8.90;8.00;;;;;;;;;;6211994;23;25074;-76
2021/10/29 07:48:34;;;;;;;9.83;8.83;;;;;;;;;;6185128;23;25066;-76
2021/10/29 07:51:01;;;;;;;11.03;8.57;;;;;;;;;;6210859;23;25115;-76
2021/10/29 07:53:26;;;;;;;10.50;8.70;;;;;;;;;;6210630;23;25106;-77
2021/10/29 07:55:51;;;;;;;8.83;7.93;;;;;;;;;;6211910;23;25078;-77
2021/10/29 07:58:16;;;;;;;8.23;7.43;;;;;;;;;;6211729;23;25054;-76
2021/10/29 08:00:43;;;;;;;10.80;9.20;;;;;;;;;;6210560;23;25041;-76
2021/10/29 08:03:08;;;;;;;9.90;8.17;;;;;;;;;;6209689;23;25047;-77
2021/10/29 08:05:34;;;;;;;10.40;7.67;;;;;;;;;;6209430;23;25108;-77
2021/10/29 08:08:00;;;;;;;11.50;8.57;;;;;;;;;;6208985;23;25056;-77
2021/10/29 08:10:25;;;;;;;12.53;8.50;;;;;;;;;;6211801;23;25069;-77
2021/10/29 08:12:51;;;;;;;11.10;8.63;;;;;;;;;;6183022;23;25095;-74
2021/10/29 08:15:16;;;;;;;10.63;8.20;;;;;;;;;;6205463;23;25077;-75
2021/10/29 08:17:42;;;;;;;11.57;7.60;;;;;;;;;;6209931;23;25061;-75
2021/10/29 08:20:08;;;;;;;12.80;7.97;;;;;;;;;;6210935;23;25107;-74
2021/10/29 08:22:36;;;;;;;9.03;7.40;;;;;;;;;;6211447;23;25049;-75
2021/10/29 08:25:02;;;;;;;11.30;8.20;;;;;;;;;;6210525;23;25121;-75
2021/10/29 08:27:27;;;;;;;9.20;7.37;;;;;;;;;;6211072;23;25077;-75
2021/10/29 08:29:53;;;;;;;9.43;7.77;;;;;;;;;;6211270;23;25135;-75
2021/10/29 08:32:19;;;;;;;9.83;7.27;;;;;;;;;;6209256;23;25096;-75
2021/10/29 08:34:46;;;;;;;8.80;7.30;;;;;;;;;;6209042;23;25127;-75
2021/10/29 08:37:12;;;;;;;9.47;8.20;;;;;;;;;;6210739;23;20283;-75
2021/10/29 08:39:38;;;;;;;10.13;7.50;;;;;;;;;;6212566;23;25147;-75
2021/10/29 08:42:04;;;;;;;8.70;7.27;;;;;;;;;;6208436;23;20160;-75
2021/10/29 08:44:30;;;;;;;12.27;7.90;;;;;;;;;;6211773;23;20666;-75
2021/10/29 08:46:59;;;;;;;9.70;8.70;;;;;;;;;;6210832;23;20422;-74
2021/10/29 08:49:25;;;;;;;10.43;7.90;;;;;;;;;;6210811;23;20868;-75
2021/10/29 08:51:50;;;;;;;9.90;7.97;;;;;;;;;;6211567;23;20376;-76
2021/10/29 08:54:16;;;;;;;17.20;8.10;;;;;;;;;;6210600;23;25113;-75
2021/10/29 08:56:41;;;;;;;10.70;7.93;;;;;;;;;;6211366;23;25037;-75
2021/10/29 08:59:13;;;;;;;11.67;8.67;;;;;;;;;;6211479;23;25095;-75
2021/10/29 09:01:53;;;;;;;11.20;7.43;;;;;;;;;;6210346;23;25050;-75
2021/10/29 09:07:26;;;;;;;10.20;7.50;;;;;;;;;;6194415;23;20434;-74
2021/10/29 09:31:58;;;;;;;8.23;6.97;;;;;;;;;;6211934;23;20351;-76
2021/10/29 09:34:23;;;;;;;8.47;7.57;;;;;;;;;;6213363;23;20409;-75
2021/10/29 09:36:50;;;;;;;10.23;8.13;;;;;;;;;;6211671;23;20438;-75
2021/10/29 09:39:16;;;;;;;11.23;8.57;;;;;;;;;;6213158;23;20152;-75
2021/10/29 09:41:42;;;;;;;7.47;6.63;;;;;;;;;;6185471;23;20853;-75
2021/10/29 09:44:10;;;;;;;11.30;7.80;;;;;;;;;;6212004;23;20441;-75
2021/10/29 09:46:59;;;;;;;8.37;7.13;;;;;;;;;;6212444;23;20246;-75
2021/10/29 09:49:51;;;;;;;7.30;6.60;;;;;;;;;;6211444;23;20440;-75
2021/10/29 09:54:52;;;;;;;8.80;7.67;;;;;;;;;;6213039;23;20460;-75
2021/10/29 09:57:21;;;;;;;10.63;7.93;;;;;;;;;;6209992;23;20347;-75
2021/10/29 09:59:49;;;;;;;10.27;7.10;;;;;;;;;;6213653;23;20505;-75
2021/10/29 10:02:21;;;;;;;12.83;6.93;;;;;;;;;;6212707;23;20363;-75
2021/10/29 10:04:50;;;;;;;10.00;6.80;;;;;;;;;;6211683;23;20387;-74
2021/10/29 10:07:26;;;;;;;11.30;7.43;;;;;;;;;;6211651;23;20414;-75
2021/10/29 10:09:55;;;;;;;9.20;7.53;;;;;;;;;;6211119;23;20428;-75
2021/10/29 10:12:21;;;;;;;8.40;6.90;;;;;;;;;;6212939;23;20362;-75
2021/10/29 10:14:48;;;;;;;9.07;6.03;;;;;;;;;;6184715;23;20397;-75
2021/10/29 10:17:15;;;;;;;10.80;6.03;;;;;;;;;;6212625;23;25117;-75
2021/10/29 10:19:41;;;;;;;7.70;5.93;;;;;;;;;;6211197;23;25080;-74
2021/10/29 10:22:11;;;;;;;7.87;5.90;;;;;;;;;;6212000;23;25074;-75
2021/10/29 10:24:36;;;;;;;7.53;6.43;;;;;;;;;;6184056;23;25034;-75
2021/10/29 10:46:05;;;;;;;8.40;6.73;;;;;;;;;;6212958;23;25128;-75
2021/10/29 10:48:36;;;;;;;8.40;6.80;;;;;;;;;;6216533;23;20345;-75
2021/10/29 10:51:51;;;;;;;10.53;6.33;;;;;;;;;;6222720;23;20351;-74
2021/10/29 10:56:54;;;;;;;9.70;6.10;;;;;;;;;;6160684;23;25067;-76
2021/10/29 10:59:33;;;;;;;10.97;6.27;;;;;;;;;;6188648;23;20413;-74
2021/10/29 11:05:20;;;;;;;9.10;6.10;;;;;;;;;;6216344;23;25065;-75
2021/10/29 11:10:18;;;;;;;10.13;6.40;;;;;;;;;;6210667;23;20398;-75
2021/10/29 11:12:44;;;;;;;8.60;5.73;;;;;;;;;;6210230;23;20174;-75
2021/10/29 11:15:14;;;;;;;7.40;6.20;;;;;;;;;;6208840;23;25062;-76
2021/10/29 11:17:47;;;;;;;8.10;5.70;;;;;;;;;;6213422;23;20870;-76
2021/10/29 11:20:53;;;;;;;8.93;5.83;;;;;;;;;;6211706;23;25071;-75
2021/10/29 11:23:29;;;;;;;7.50;6.00;;;;;;;;;;6121774;23;25082;-74
2021/10/29 11:26:02;;;;;;;10.83;6.50;;;;;;;;;;6147285;23;25090;-75
2021/10/29 11:28:37;;;;;;;8.40;5.30;;;;;;;;;;6186264;23;25128;-75
2021/10/29 11:31:04;;;;;;;6.70;6.00;;;;;;;;;;6210587;23;20383;-75
2021/10/29 11:33:31;;;;;;;7.70;5.80;;;;;;;;;;6176697;23;20400;-74
2021/10/29 11:35:58;;;;;;;8.80;5.23;;;;;;;;;;6206070;23;20425;-75
2021/10/29 11:38:26;;;;;;;7.20;5.40;;;;;;;;;;6210111;23;25079;-75
2021/10/29 11:40:52;;;;;;;7.47;5.40;;;;;;;;;;6208349;23;20449;-75
2021/10/29 11:43:21;;;;;;;8.23;5.00;;;;;;;;;;6208088;23;20418;-75
2021/10/29 11:45:47;;;;;;;8.20;5.50;;;;;;;;;;6204817;23;20645;-75
2021/10/29 11:48:12;;;;;;;7.10;4.80;;;;;;;;;;6205905;23;20375;-75
2021/10/29 11:50:38;;;;;;;5.90;4.90;;;;;;;;;;6211927;23;20421;-75
2021/10/29 11:53:04;;;;;;;7.53;5.80;;;;;;;;;;6208743;23;20171;-76
2021/10/29 11:55:41;;;;;;;8.13;5.67;;;;;;;;;;6211370;23;20434;-76
2021/10/29 11:58:23;;;;;;;6.60;4.60;;;;;;;;;;6210311;23;20463;-76
2021/10/29 12:08:37;;;;;;;5.30;4.77;;;;;;;;;;6210161;23;20417;-75
2021/10/29 12:11:03;;;;;;;10.03;5.10;;;;;;;;;;6208370;23;20363;-75
2021/10/29 12:13:29;;;;;;;6.27;4.97;;;;;;;;;;6209190;23;20417;-76
2021/10/29 12:15:54;;;;;;;6.57;5.50;;;;;;;;;;6206431;23;20448;-75
2021/10/29 12:18:22;;;;;;;8.00;5.10;;;;;;;;;;6211191;23;20604;-76
2021/10/29 12:20:50;;;;;;;5.80;4.77;;;;;;;;;;6210780;23;20156;-76
2021/10/29 12:23:17;;;;;;;5.73;5.23;;;;;;;;;;6209443;23;20383;-77
2021/10/29 12:30:51;;;;;;;6.17;5.03;;;;;;;;;;6208663;23;20403;-75
2021/10/29 13:03:05;;;;;;;6.83;4.93;;;;;;;;;;6208971;23;20403;-75
2021/10/29 13:05:31;;;;;;;6.47;4.60;;;;;;;;;;6207641;23;20383;-75
2021/10/29 13:07:56;;;;;;;7.30;5.10;;;;;;;;;;6206869;23;20454;-75
2021/10/29 13:10:22;;;;;;;8.53;4.70;;;;;;;;;;6181354;23;20468;-76
2021/10/29 13:15:17;;;;;;;5.93;4.40;;;;;;;;;;6210909;23;20862;-77
2021/10/29 13:17:55;;;;;;;6.03;4.60;;;;;;;;;;6208692;23;20367;-75
2021/10/29 13:36:27;;;;;;;6.00;4.50;;;;;;;;;;6227679;22;20997;-77
2021/10/29 13:53:02;;;;;;;7.00;5.43;;;;;;;;;;6209758;23;20571;-78
2021/10/29 14:30:39;;;;;;;6.30;4.90;;;;;;;;;;6211831;23;20351;-78
2021/10/29 14:33:19;;;;;;;8.30;4.97;;;;;;;;;;6186338;23;20438;-79
2021/10/29 14:35:48;;;;;;;6.10;4.83;;;;;;;;;;6211721;23;20951;-77
2021/10/29 14:41:03;;;;;;;8.97;5.17;;;;;;;;;;6212878;23;20398;-78
2021/10/29 14:43:39;;;;;;;6.20;5.30;;;;;;;;;;6185773;23;20398;-80
2021/10/29 15:29:16;;;;;;;6.20;5.60;;;;;;;;;;6149279;23;20368;-77
2021/10/29 15:45:34;;;;;;;9.17;5.33;;;;;;;;;;6211461;23;20409;-78
2021/10/29 15:48:06;;;;;;;5.90;5.20;;;;;;;;;;6209981;23;20359;-78
2021/10/29 15:50:33;;;;;;;5.40;4.90;;;;;;;;;;6210367;23;20682;-78
2021/10/29 15:52:59;;;;;;;6.13;4.93;;;;;;;;;;6212283;23;20351;-78
2021/10/29 15:58:08;;;;;;;7.53;5.30;;;;;;;;;;6216196;23;20602;-77
2021/10/29 16:19:27;;;;;;;5.17;4.67;;;;;;;;;;6212547;23;20363;-78
2021/10/29 16:21:52;;;;;;;5.13;4.73;;;;;;;;;;6210632;23;20599;-79
2021/10/29 16:24:18;;;;;;;6.03;5.10;;;;;;;;;;6184573;23;20250;-81
2021/10/29 16:26:45;;;;;;;8.57;4.50;;;;;;;;;;6211103;23;20202;-81
2021/10/29 16:29:13;;;;;;;6.27;5.00;;;;;;;;;;6212013;23;20375;-81
2021/10/29 16:31:44;;;;;;;9.03;5.40;;;;;;;;;;6210983;23;20359;-79
2021/10/29 16:34:10;;;;;;;4.80;4.40;;;;;;;;;;6208633;23;20430;-82
2021/10/29 16:36:36;;;;;;;5.47;4.67;;;;;;;;;;6210468;23;20443;-80
2021/10/29 16:39:01;;;;;;;7.00;5.10;;;;;;;;;;6211219;23;20374;-80
2021/10/29 16:41:26;;;;;;;7.60;5.87;;;;;;;;;;6212824;23;20223;-81
2021/10/29 16:43:52;;;;;;;6.17;5.10;;;;;;;;;;6182599;23;20622;-81
2021/10/29 16:46:17;;;;;;;8.53;5.60;;;;;;;;;;6208727;23;20172;-81
2021/10/29 16:48:42;;;;;;;6.40;5.20;;;;;;;;;;6212642;23;20728;-80
2021/10/29 16:51:08;;;;;;;6.83;4.87;;;;;;;;;;6210652;23;20144;-80
2021/10/29 16:53:33;;;;;;;6.23;5.63;;;;;;;;;;6210300;23;20144;-80
2021/10/29 16:55:59;;;;;;;6.13;4.93;;;;;;;;;;6210938;23;20392;-80
2021/10/29 16:58:26;;;;;;;6.83;5.30;;;;;;;;;;6209923;23;20377;-81
2021/10/29 17:00:52;;;;;;;6.30;5.53;;;;;;;;;;6211426;23;20140;-80
2021/10/29 17:03:17;;;;;;;7.70;5.40;;;;;;;;;;6210024;23;20366;-79
2021/10/29 17:05:43;;;;;;;6.50;5.40;;;;;;;;;;6209008;23;20552;-80
2021/10/29 17:08:08;;;;;;;6.03;5.53;;;;;;;;;;6209068;23;20155;-80
2021/10/29 17:10:35;;;;;;;6.07;5.17;;;;;;;;;;6210100;23;20190;-82
2021/10/29 17:13:00;;;;;;;8.87;5.67;;;;;;;;;;6212168;23;20175;-79
2021/10/29 17:15:25;;;;;;;7.03;4.97;;;;;;;;;;6211201;23;20383;-80
2021/10/29 17:17:51;;;;;;;8.33;5.20;;;;;;;;;;6210686;23;20619;-81
2021/10/29 17:20:17;;;;;;;5.77;5.03;;;;;;;;;;6208204;23;20468;-79
2021/10/29 17:22:42;;;;;;;8.60;5.43;;;;;;;;;;6209461;23;20148;-80
2021/10/29 17:25:08;;;;;;;5.40;4.53;;;;;;;;;;6185146;23;20454;-81
2021/10/29 17:27:34;;;;;;;5.53;4.50;;;;;;;;;;6188080;23;20203;-80
2021/10/29 17:29:59;;;;;;;5.00;4.50;;;;;;;;;;6214894;23;20363;-80
2021/10/29 17:32:24;;;;;;;6.33;5.00;;;;;;;;;;6213017;23;20154;-77
2021/10/29 17:34:49;;;;;;;6.03;5.13;;;;;;;;;;6213008;23;20140;-80
2021/10/29 17:37:16;;;;;;;7.13;4.87;;;;;;;;;;6212587;23;20151;-81
2021/10/29 17:39:42;;;;;;;6.43;4.63;;;;;;;;;;6213905;23;20155;-82
2021/10/29 17:42:08;;;;;;;5.90;4.80;;;;;;;;;;6213904;23;20775;-80
2021/10/29 17:44:33;;;;;;;5.43;4.80;;;;;;;;;;6211668;23;20234;-80
2021/10/29 17:47:00;;;;;;;4.90;4.40;;;;;;;;;;6214472;23;20421;-80
2021/10/29 17:49:25;;;;;;;4.93;4.37;;;;;;;;;;6213910;23;20148;-81
2021/10/29 17:51:50;;;;;;;10.43;4.80;;;;;;;;;;6186901;23;20414;-80
2021/10/29 17:54:16;;;;;;;7.03;4.20;;;;;;;;;;6214252;23;20140;-80
2021/10/29 17:56:41;;;;;;;5.93;4.77;;;;;;;;;;6215001;23;20167;-80
2021/10/29 17:59:07;;;;;;;6.50;4.47;;;;;;;;;;6214793;23;20148;-81
2021/10/29 18:01:32;;;;;;;5.03;4.63;;;;;;;;;;6213090;23;20520;-80
2021/10/29 18:03:57;;;;;;;7.13;5.30;;;;;;;;;;6215959;23;20148;-81
2021/10/29 18:06:23;;;;;;;7.20;4.53;;;;;;;;;;6214081;23;20274;-81
2021/10/29 18:08:55;;;;;;;7.70;5.77;;;;;;;;;;6185701;23;20167;-80
2021/10/29 18:11:20;;;;;;;7.97;4.83;;;;;;;;;;6214228;23;20160;-81
2021/10/29 18:13:46;;;;;;;8.97;4.60;;;;;;;;;;6214230;23;20374;-82
2021/10/29 18:16:11;;;;;;;5.70;4.80;;;;;;;;;;6213990;23;20618;-79
2021/10/29 18:18:38;;;;;;;9.30;4.97;;;;;;;;;;6213894;23;20156;-80
2021/10/29 18:21:09;;;;;;;5.87;4.97;;;;;;;;;;6182558;23;20495;-81
2021/10/29 18:23:34;;;;;;;6.23;4.80;;;;;;;;;;6212315;23;20354;-81
2021/10/29 18:26:00;;;;;;;7.93;5.00;;;;;;;;;;6214074;23;20415;-80
2021/10/29 18:28:25;;;;;;;5.50;5.00;;;;;;;;;;6212870;23;20152;-80
2021/10/29 18:30:50;;;;;;;8.03;4.93;;;;;;;;;;6213385;23;20152;-79
2021/10/29 18:33:18;;;;;;;6.17;4.60;;;;;;;;;;6212734;23;20753;-79
2021/10/29 18:35:44;;;;;;;5.80;5.20;;;;;;;;;;6213277;23;20637;-79
2021/10/29 18:38:09;;;;;;;7.40;5.70;;;;;;;;;;6214683;23;20931;-80
2021/10/29 18:40:35;;;;;;;6.47;4.97;;;;;;;;;;6213571;23;20367;-79
2021/10/29 18:43:00;;;;;;;9.10;5.43;;;;;;;;;;6213051;23;20206;-79
2021/10/29 18:45:25;;;;;;;6.53;5.17;;;;;;;;;;6213544;23;20209;-80
2021/10/29 18:47:51;;;;;;;11.23;6.13;;;;;;;;;;6211944;23;20473;-80
2021/10/29 18:50:16;;;;;;;6.13;4.97;;;;;;;;;;6214269;23;20148;-79
2021/10/29 18:52:42;;;;;;;5.57;5.07;;;;;;;;;;6213447;23;20227;-80
2021/10/29 18:55:07;;;;;;;6.50;5.27;;;;;;;;;;6186893;23;20168;-79
2021/10/29 18:57:32;;;;;;;6.00;5.40;;;;;;;;;;6212243;23;20223;-80
2021/10/29 18:59:58;;;;;;;8.73;6.07;;;;;;;;;;6211356;23;20158;-80
2021/10/29 19:02:23;;;;;;;8.90;5.60;;;;;;;;;;6212165;23;20202;-80
2021/10/29 19:04:49;;;;;;;6.10;5.50;;;;;;;;;;6212787;23;20834;-81
2021/10/29 19:07:14;;;;;;;7.33;6.00;;;;;;;;;;6212895;23;20174;-81
2021/10/29 19:09:40;;;;;;;6.87;6.10;;;;;;;;;;6213767;23;20211;-82
2021/10/29 19:12:05;;;;;;;6.87;6.17;;;;;;;;;;6210366;23;20159;-81
2021/10/29 19:14:32;;;;;;;6.83;5.60;;;;;;;;;;6211954;23;20147;-81
2021/10/29 19:16:58;;;;;;;7.60;5.63;;;;;;;;;;6186214;23;20168;-81
2021/10/29 19:19:23;;;;;;;5.70;5.20;;;;;;;;;;6214349;23;20370;-79
2021/10/29 19:21:48;;;;;;;5.47;4.60;;;;;;;;;;6212936;23;20152;-79
2021/10/29 19:24:14;;;;;;;6.70;5.10;;;;;;;;;;6211058;23;20148;-81
2021/10/29 19:26:39;;;;;;;5.40;4.30;;;;;;;;;;6211114;23;20171;-82
2021/10/29 19:29:05;;;;;;;9.93;5.33;;;;;;;;;;6213189;23;20163;-81
2021/10/29 19:31:30;;;;;;;5.10;4.57;;;;;;;;;;6212884;23;20148;-80
2021/10/29 19:33:58;;;;;;;9.30;5.33;;;;;;;;;;6213230;23;20139;-82
2021/10/29 19:36:27;;;;;;;5.90;5.20;;;;;;;;;;6211690;23;20183;-81
2021/10/29 19:41:33;;;;;;;6.07;5.03;;;;;;;;;;6225150;23;20354;-82
2021/10/29 19:43:59;;;;;;;8.60;5.10;;;;;;;;;;6213474;23;20363;-81